Terminal Aerodrome Forecast
Issued by NWS

Home | Current Version | Previous Version | Text Only | Print | Product List | Glossary On
Versions: 1 2 3 4 5 6 7 8 9 10 11 12
600
FTUS45 KVEF 132320
TAFDAG
TAF
KDAG 132320Z 1400/1424 VRB05KT P6SM FEW250
     FM140500 27011KT P6SM FEW250
     FM141900 32008KT P6SM FEW250
     FM142200 02007KT P6SM FEW250=

USA.gov is the U.S. government's official web portal to all federal, state and local government web resources and services.